Time;durP1;ratioP1;P1;durP2;ratioP2;P2;SDS_P1;SDS_P2;PMS_P1;PMS_P2;Temp;Humidity;BMP_temperature;BMP_pressure;BME280_temperature;BME280_humidity;BME280_pressure;Samples;Min_cycle;Max_cycle;Signal;HPM_P1;HPM_P2
2022/05/08 00:01:35;;;;;;;3.83;2.00;;;17.20;67.90;;;;;;5285485;28;20785;-68
2022/05/08 00:04:27;;;;;;;3.33;2.30;;;17.20;68.00;;;;;;5287189;28;20211;-68
2022/05/08 00:07:20;;;;;;;2.77;1.90;;;17.30;68.10;;;;;;5287574;28;20724;-68
2022/05/08 00:10:12;;;;;;;4.20;2.30;;;17.30;68.00;;;;;;5287554;28;20215;-67
2022/05/08 00:13:05;;;;;;;3.03;2.13;;;17.20;68.00;;;;;;5286505;28;20671;-67
2022/05/08 00:15:58;;;;;;;2.87;2.13;;;17.20;67.90;;;;;;5286647;28;20222;-68
2022/05/08 00:18:50;;;;;;;3.00;1.83;;;17.30;68.00;;;;;;5286315;28;20198;-68
2022/05/08 00:21:42;;;;;;;2.83;2.00;;;17.30;68.00;;;;;;5286352;28;20193;-68
2022/05/08 00:24:34;;;;;;;3.77;2.30;;;17.20;68.00;;;;;;5284137;28;20306;-69
2022/05/08 00:27:26;;;;;;;3.43;2.23;;;17.20;67.90;;;;;;5267007;28;20303;-68
2022/05/08 00:30:20;;;;;;;4.57;2.13;;;17.20;67.90;;;;;;5272779;28;20706;-68
2022/05/08 00:33:12;;;;;;;3.93;2.40;;;17.20;68.50;;;;;;5285263;28;20278;-69
2022/05/08 00:36:04;;;;;;;3.80;2.30;;;17.20;67.90;;;;;;5249951;28;1080222;-68
2022/05/08 00:38:56;;;;;;;3.37;2.30;;;17.20;67.80;;;;;;5287962;28;20199;-69
2022/05/08 00:41:49;;;;;;;3.53;2.00;;;17.20;67.80;;;;;;5288295;28;20195;-69
2022/05/08 00:44:41;;;;;;;3.37;1.93;;;17.20;67.80;;;;;;5288095;28;20265;-69
2022/05/08 00:47:35;;;;;;;2.00;1.70;;;17.30;67.90;;;;;;5288216;28;20333;-67
2022/05/08 00:50:27;;;;;;;4.67;2.47;;;17.20;67.80;;;;;;5288035;28;20688;-68
2022/05/08 00:53:20;;;;;;;2.33;1.67;;;17.20;67.80;;;;;;5287156;28;20248;-68
2022/05/08 00:56:15;;;;;;;3.43;2.17;;;17.20;67.80;;;;;;5266680;28;20271;-69
2022/05/08 00:59:08;;;;;;;4.53;2.00;;;17.20;67.80;;;;;;5268333;28;20192;-68
2022/05/08 01:02:00;;;;;;;4.50;2.23;;;17.20;67.80;;;;;;5266184;28;20194;-68
2022/05/08 01:04:53;;;;;;;3.70;2.40;;;17.20;67.70;;;;;;5265987;28;20693;-68
2022/05/08 01:07:45;;;;;;;3.37;2.20;;;17.20;68.30;;;;;;5286812;28;20195;-68
2022/05/08 01:10:38;;;;;;;3.00;1.80;;;17.20;67.80;;;;;;5281400;28;20340;-68
2022/05/08 01:13:30;;;;;;;4.43;2.10;;;17.20;67.70;;;;;;5266094;28;20195;-68
2022/05/08 01:16:23;;;;;;;3.27;1.90;;;17.20;67.70;;;;;;5268183;28;20271;-68
2022/05/08 01:19:16;;;;;;;3.23;1.63;;;17.20;67.70;;;;;;5267374;28;20192;-68
2022/05/08 01:22:09;;;;;;;4.20;2.17;;;17.20;67.70;;;;;;5266414;28;20192;-68
2022/05/08 01:25:02;;;;;;;4.73;1.93;;;17.20;67.70;;;;;;5284122;28;20263;-68
2022/05/08 01:27:55;;;;;;;4.47;1.80;;;17.20;67.70;;;;;;5286672;28;20960;-68
2022/05/08 01:30:49;;;;;;;4.63;2.30;;;17.20;67.70;;;;;;5287488;28;20260;-69
2022/05/08 01:33:41;;;;;;;3.23;2.00;;;17.20;67.70;;;;;;5287007;28;20305;-67
2022/05/08 01:36:34;;;;;;;3.30;1.70;;;17.20;67.70;;;;;;5287091;28;20345;-68
2022/05/08 01:39:27;;;;;;;3.77;1.80;;;17.20;67.60;;;;;;5286095;28;20605;-68
2022/05/08 01:42:19;;;;;;;2.13;1.60;;;17.20;67.70;;;;;;5286719;28;20191;-68
2022/05/08 01:45:12;;;;;;;2.50;1.70;;;17.20;67.60;;;;;;5285821;28;20211;-68
2022/05/08 01:48:23;;;;;;;3.80;2.07;;;17.20;67.60;;;;;;5287577;28;20187;-67
2022/05/08 01:51:16;;;;;;;3.17;1.90;;;17.20;67.60;;;;;;5287048;28;20789;-69
2022/05/08 01:54:08;;;;;;;3.23;2.10;;;17.20;67.60;;;;;;5286617;28;20210;-68
2022/05/08 01:57:02;;;;;;;3.40;2.10;;;17.20;67.50;;;;;;5283134;28;20199;-68
2022/05/08 01:59:54;;;;;;;3.30;1.77;;;17.20;67.70;;;;;;5287880;28;20243;-68
2022/05/08 02:02:48;;;;;;;4.53;1.80;;;17.20;67.60;;;;;;5285869;28;20270;-69
2022/05/08 02:05:41;;;;;;;5.00;1.83;;;17.20;67.60;;;;;;5286011;28;20218;-68
2022/05/08 02:08:33;;;;;;;3.90;1.90;;;17.20;67.50;;;;;;5286295;28;20568;-67
2022/05/08 02:11:26;;;;;;;2.83;1.43;;;17.20;67.50;;;;;;5282061;28;20218;-68
2022/05/08 02:14:19;;;;;;;2.30;1.63;;;17.20;67.50;;;;;;5284400;28;20226;-68
2022/05/08 02:17:11;;;;;;;2.43;1.73;;;17.20;67.50;;;;;;5287065;28;20206;-68
2022/05/08 02:20:06;;;;;;;3.80;1.70;;;17.20;67.50;;;;;;5287070;28;20556;-68
2022/05/08 02:22:58;;;;;;;3.57;1.90;;;17.20;67.50;;;;;;5286061;28;20248;-69
2022/05/08 02:25:50;;;;;;;3.27;1.77;;;17.20;67.50;;;;;;5274382;28;20204;-68
2022/05/08 02:28:42;;;;;;;2.93;1.70;;;17.20;67.50;;;;;;5265770;28;20192;-68
2022/05/08 02:31:36;;;;;;;2.50;1.80;;;17.20;67.50;;;;;;5265398;28;20222;-68
2022/05/08 02:34:28;;;;;;;4.20;1.90;;;17.20;67.50;;;;;;5268464;28;20215;-68
2022/05/08 02:37:21;;;;;;;3.20;1.77;;;17.20;67.50;;;;;;5286642;28;20183;-68
2022/05/08 02:40:13;;;;;;;2.97;1.80;;;17.20;67.50;;;;;;5285669;28;20204;-69
2022/05/08 02:43:05;;;;;;;4.33;1.90;;;17.20;67.50;;;;;;5285568;28;20591;-69
2022/05/08 02:45:59;;;;;;;2.93;1.90;;;17.20;67.50;;;;;;5285393;28;20222;-69
2022/05/08 02:48:53;;;;;;;2.40;1.50;;;17.20;67.50;;;;;;5265057;28;20196;-68
2022/05/08 02:51:45;;;;;;;3.00;1.80;;;17.20;67.40;;;;;;5264497;28;20253;-68
2022/05/08 02:54:37;;;;;;;3.30;1.80;;;17.20;67.40;;;;;;5265770;28;20208;-68
2022/05/08 03:00:39;;;;;;;2.43;1.57;;;17.20;67.40;;;;;;5269462;28;20180;-68
2022/05/08 03:03:31;;;;;;;3.20;2.00;;;17.20;67.40;;;;;;5270100;28;20257;-68
2022/05/08 03:06:25;;;;;;;2.93;1.67;;;17.20;67.40;;;;;;5268112;28;20196;-67
2022/05/08 03:09:17;;;;;;;1.93;1.40;;;17.20;67.40;;;;;;5268022;28;20191;-69
2022/05/08 03:12:10;;;;;;;3.27;1.87;;;17.20;67.40;;;;;;5267706;28;20216;-68
2022/05/08 03:15:02;;;;;;;2.60;1.53;;;17.20;67.40;;;;;;5269531;28;20226;-68
2022/05/08 03:17:56;;;;;;;3.10;1.70;;;17.20;67.40;;;;;;5268125;28;20191;-68
2022/05/08 03:20:48;;;;;;;2.77;1.83;;;17.20;67.30;;;;;;5268614;28;20180;-69
2022/05/08 03:23:43;;;;;;;1.87;1.33;;;17.20;67.30;;;;;;5268758;28;20196;-68
2022/05/08 03:26:36;;;;;;;3.23;1.77;;;17.20;67.90;;;;;;5268218;28;20198;-68
2022/05/08 03:29:28;;;;;;;2.10;1.77;;;17.20;67.40;;;;;;5270391;28;20207;-69
2022/05/08 03:32:20;;;;;;;4.10;1.97;;;17.20;67.30;;;;;;5268030;28;20353;-69
2022/05/08 03:35:12;;;;;;;4.27;1.70;;;17.20;67.30;;;;;;5273348;28;20226;-68
2022/05/08 03:38:05;;;;;;;3.33;1.77;;;17.20;67.30;;;;;;5290572;28;20199;-68
2022/05/08 03:40:58;;;;;;;3.53;1.80;;;17.20;67.30;;;;;;5268258;28;20184;-68
2022/05/08 03:43:51;;;;;;;2.33;1.40;;;17.20;67.30;;;;;;5269019;28;20317;-68
2022/05/08 03:46:43;;;;;;;2.70;1.50;;;17.20;67.30;;;;;;5268760;28;20187;-68
2022/05/08 03:49:35;;;;;;;3.20;1.60;;;17.20;67.20;;;;;;5268638;28;20196;-68
2022/05/08 03:52:27;;;;;;;1.93;1.37;;;17.20;67.20;;;;;;5276861;28;20211;-69
2022/05/08 03:55:19;;;;;;;3.20;1.53;;;17.20;67.20;;;;;;5268006;28;20295;-68
2022/05/08 03:58:13;;;;;;;1.53;1.40;;;17.20;67.20;;;;;;5288833;28;20226;-68
2022/05/08 04:01:05;;;;;;;3.67;1.70;;;17.20;67.30;;;;;;5289163;28;20195;-68
2022/05/08 04:03:59;;;;;;;2.23;1.50;;;17.20;67.20;;;;;;5289093;28;20623;-68
2022/05/08 04:06:51;;;;;;;2.53;1.43;;;17.20;67.20;;;;;;5288568;28;20202;-68
2022/05/08 04:09:43;;;;;;;2.40;1.50;;;17.10;67.20;;;;;;5288375;28;20191;-68
2022/05/08 04:12:35;;;;;;;1.87;1.03;;;17.20;67.30;;;;;;5267404;28;20260;-68
2022/05/08 04:18:38;;;;;;;1.77;1.37;;;17.20;67.20;;;;;;5268676;28;20274;-67
2022/05/08 04:21:30;;;;;;;2.67;1.50;;;17.20;67.20;;;;;;5268254;28;20191;-68
2022/05/08 04:24:21;;;;;;;2.07;1.30;;;17.20;67.20;;;;;;5267860;28;20295;-68
2022/05/08 04:27:13;;;;;;;2.13;1.53;;;17.20;67.20;;;;;;5285711;28;20198;-69
2022/05/08 04:30:07;;;;;;;3.23;1.63;;;17.20;67.20;;;;;;5288767;28;20623;-68
2022/05/08 04:33:00;;;;;;;2.20;1.40;;;17.20;67.20;;;;;;5288161;28;20215;-69
2022/05/08 04:35:52;;;;;;;2.60;1.60;;;17.20;67.10;;;;;;5287513;28;20252;-69
2022/05/08 04:38:44;;;;;;;3.43;1.67;;;17.20;67.20;;;;;;5288086;28;20195;-68
2022/05/08 04:41:37;;;;;;;2.40;1.60;;;17.20;67.10;;;;;;5287892;28;20313;-68
2022/05/08 04:44:29;;;;;;;3.10;1.47;;;17.20;67.10;;;;;;5267638;28;20251;-68
2022/05/08 04:47:21;;;;;;;3.77;1.70;;;17.20;67.20;;;;;;5267015;28;20306;-69
2022/05/08 04:50:14;;;;;;;2.50;1.57;;;17.20;67.10;;;;;;5266402;28;20199;-69
2022/05/08 04:53:07;;;;;;;1.80;1.37;;;17.20;67.20;;;;;;5265631;28;20330;-67
2022/05/08 04:55:59;;;;;;;1.60;1.10;;;17.20;67.20;;;;;;5268215;28;20586;-68
2022/05/08 04:58:51;;;;;;;2.73;1.60;;;17.20;67.10;;;;;;5268225;28;20206;-68
2022/05/08 05:01:44;;;;;;;2.00;1.20;;;17.20;67.10;;;;;;5267759;28;20235;-68
2022/05/08 05:04:36;;;;;;;3.23;1.70;;;17.20;67.10;;;;;;5266478;28;20220;-68
2022/05/08 05:07:29;;;;;;;2.63;1.50;;;17.20;67.00;;;;;;5267792;28;20349;-69
2022/05/08 05:10:22;;;;;;;2.27;1.40;;;17.20;67.10;;;;;;5275583;28;20234;-67
2022/05/08 05:13:15;;;;;;;2.90;1.50;;;17.20;67.10;;;;;;5287430;28;20211;-68
2022/05/08 05:16:07;;;;;;;2.90;1.63;;;17.20;67.00;;;;;;5285422;28;20248;-68
2022/05/08 05:18:59;;;;;;;3.63;1.53;;;17.20;67.20;;;;;;5266633;28;20550;-68
2022/05/08 05:21:51;;;;;;;3.07;1.50;;;17.20;67.10;;;;;;5267806;28;20231;-69
2022/05/08 05:24:45;;;;;;;2.17;1.47;;;17.20;67.00;;;;;;5266018;28;20716;-69
2022/05/08 05:27:37;;;;;;;3.30;1.67;;;17.20;67.10;;;;;;5266276;28;20192;-67
2022/05/08 05:30:29;;;;;;;3.17;1.43;;;17.20;67.00;;;;;;5267179;28;20199;-67
2022/05/08 05:33:21;;;;;;;2.10;1.43;;;17.20;67.00;;;;;;5266218;28;20359;-67
2022/05/08 05:36:13;;;;;;;2.97;1.50;;;17.20;67.00;;;;;;5266400;28;20283;-69
2022/05/08 05:39:05;;;;;;;2.47;1.43;;;17.30;67.00;;;;;;5266753;28;20202;-67
2022/05/08 05:41:59;;;;;;;3.80;1.50;;;17.20;67.00;;;;;;5265548;28;20281;-67
2022/05/08 05:44:51;;;;;;;2.60;1.40;;;17.20;67.00;;;;;;5266343;28;20211;-69
2022/05/08 05:47:52;;;;;;;2.57;1.40;;;17.20;67.00;;;;;;5272107;28;20237;-69
2022/05/08 05:50:45;;;;;;;2.30;1.20;;;17.20;66.90;;;;;;5276709;28;20190;-68
2022/05/08 05:53:37;;;;;;;2.03;1.27;;;17.20;67.00;;;;;;5287110;28;20207;-68
2022/05/08 05:56:29;;;;;;;3.23;1.40;;;17.20;67.00;;;;;;5285531;28;20195;-69
2022/05/08 05:59:23;;;;;;;3.97;1.30;;;17.20;67.00;;;;;;5278791;28;20629;-68
2022/05/08 06:02:15;;;;;;;2.37;1.20;;;17.20;67.00;;;;;;5264334;28;20964;-69
2022/05/08 06:05:08;;;;;;;2.60;1.30;;;17.30;67.00;;;;;;5266963;28;20861;-69
2022/05/08 06:08:00;;;;;;;2.53;1.37;;;17.20;66.90;;;;;;5267226;28;20245;-69
2022/05/08 06:10:52;;;;;;;2.47;1.60;;;17.20;66.90;;;;;;5267212;28;20199;-69
2022/05/08 06:13:45;;;;;;;2.83;1.27;;;17.30;67.00;;;;;;5266696;28;20192;-69
2022/05/08 06:16:38;;;;;;;1.50;1.00;;;17.20;66.90;;;;;;5265500;28;20547;-69
2022/05/08 06:19:31;;;;;;;4.27;1.60;;;17.30;67.00;;;;;;5272471;28;20248;-69
2022/05/08 06:22:23;;;;;;;2.43;1.37;;;17.30;66.90;;;;;;5276330;28;20192;-68
2022/05/08 06:25:15;;;;;;;2.27;1.10;;;17.20;66.90;;;;;;5276432;28;20214;-69
2022/05/08 06:28:07;;;;;;;2.80;1.43;;;17.30;66.90;;;;;;5274854;28;20199;-69
2022/05/08 06:31:00;;;;;;;4.17;1.47;;;17.30;66.90;;;;;;5277714;28;20283;-69
2022/05/08 06:33:53;;;;;;;3.13;1.23;;;17.30;67.00;;;;;;5275889;28;20198;-69
2022/05/08 06:36:46;;;;;;;1.67;1.07;;;17.30;66.90;;;;;;5274523;28;20194;-69
2022/05/08 06:39:38;;;;;;;1.80;1.03;;;17.20;66.80;;;;;;5276440;28;20187;-68
2022/05/08 06:42:32;;;;;;;2.60;1.10;;;17.30;66.80;;;;;;5274657;28;20305;-69
2022/05/08 06:45:24;;;;;;;2.37;1.23;;;17.30;66.90;;;;;;5275418;28;20294;-68
2022/05/08 06:48:17;;;;;;;2.43;0.90;;;17.30;66.90;;;;;;5268110;28;20565;-68
2022/05/08 06:51:11;;;;;;;3.07;1.30;;;17.30;66.80;;;;;;5265029;28;20271;-69
2022/05/08 06:54:03;;;;;;;2.33;1.10;;;17.30;66.80;;;;;;5265489;28;20719;-69
2022/05/08 06:56:56;;;;;;;2.13;1.17;;;17.30;66.70;;;;;;5272195;28;20195;-69
2022/05/08 07:02:57;;;;;;;2.90;1.20;;;17.30;66.70;;;;;;5279968;28;20184;-68
2022/05/08 07:05:49;;;;;;;2.63;1.03;;;17.20;66.80;;;;;;5286314;28;20211;-68
2022/05/08 07:08:43;;;;;;;2.20;1.03;;;17.20;66.70;;;;;;5286114;28;20669;-68
2022/05/08 07:11:37;;;;;;;3.40;1.50;;;17.30;67.30;;;;;;5285916;28;20197;-69
2022/05/08 07:14:29;;;;;;;2.73;1.10;;;17.30;66.80;;;;;;5285152;28;20211;-68
2022/05/08 07:17:23;;;;;;;2.50;1.10;;;17.20;66.60;;;;;;5285673;28;20199;-70
2022/05/08 07:20:15;;;;;;;1.67;1.00;;;17.30;66.60;;;;;;5284834;28;20698;-69
2022/05/08 07:23:07;;;;;;;2.30;1.20;;;17.30;66.60;;;;;;5285170;28;20187;-70
2022/05/08 07:26:01;;;;;;;2.07;1.07;;;17.20;66.50;;;;;;5285385;28;20351;-69
2022/05/08 07:28:53;;;;;;;1.60;1.10;;;17.20;66.70;;;;;;5273848;28;20726;-68
2022/05/08 07:31:45;;;;;;;1.83;1.10;;;17.30;66.80;;;;;;5265544;28;20188;-68
2022/05/08 07:37:47;;;;;;;2.63;1.20;;;17.20;66.60;;;;;;5265661;28;20188;-68
2022/05/08 07:40:42;;;;;;;1.80;1.07;;;17.30;66.70;;;;;;5265397;28;20653;-74
2022/05/08 07:43:35;;;;;;;2.73;1.00;;;17.30;66.70;;;;;;5270011;28;20653;-68
2022/05/08 07:46:27;;;;;;;2.97;1.10;;;17.30;66.70;;;;;;5267838;28;20614;-69
2022/05/08 07:49:19;;;;;;;1.70;0.90;;;17.30;66.50;;;;;;5286014;28;20202;-69
2022/05/08 07:52:11;;;;;;;2.57;1.40;;;17.30;66.60;;;;;;5272031;28;20237;-71
2022/05/08 07:55:04;;;;;;;2.77;0.83;;;17.30;66.40;;;;;;5268145;28;20303;-69
2022/05/08 07:57:56;;;;;;;2.33;1.20;;;17.30;66.30;;;;;;5274133;28;20802;-69
2022/05/08 08:00:53;;;;;;;1.63;1.20;;;17.30;66.50;;;;;;5277103;28;20204;-69
2022/05/08 08:03:45;;;;;;;3.50;1.23;;;17.30;66.40;;;;;;5278915;28;20225;-69
2022/05/08 08:06:37;;;;;;;3.27;1.20;;;17.30;66.50;;;;;;5289307;28;20255;-66
2022/05/08 08:09:29;;;;;;;3.27;1.30;;;17.30;66.30;;;;;;5288812;28;20191;-66
2022/05/08 08:12:22;;;;;;;2.70;1.23;;;17.30;66.10;;;;;;5289022;28;20569;-68
2022/05/08 08:15:14;;;;;;;3.33;1.60;;;17.30;66.20;;;;;;5280824;28;20208;-68
2022/05/08 08:18:08;;;;;;;4.13;1.50;;;17.30;66.00;;;;;;5286369;28;20193;-67
2022/05/08 08:21:00;;;;;;;3.83;1.70;;;17.30;66.00;;;;;;5276821;28;20208;-71
2022/05/08 08:23:53;;;;;;;3.07;1.47;;;17.30;65.90;;;;;;5289100;28;20564;-69
2022/05/08 08:26:45;;;;;;;2.40;1.43;;;17.30;65.90;;;;;;5268539;28;20267;-73
2022/05/08 08:29:37;;;;;;;4.27;1.60;;;17.30;66.10;;;;;;5267127;28;20669;-70
2022/05/08 08:32:31;;;;;;;3.37;1.27;;;17.30;66.20;;;;;;5266852;28;20215;-68
2022/05/08 08:35:24;;;;;;;2.73;1.30;;;17.30;66.10;;;;;;5265102;28;20223;-67
2022/05/08 08:38:16;;;;;;;3.23;1.50;;;17.30;66.20;;;;;;5280960;28;20202;-69
2022/05/08 08:41:09;;;;;;;3.50;1.40;;;17.30;66.20;;;;;;5288011;28;20270;-69
2022/05/08 08:47:44;;;;;;;3.40;1.30;;;17.30;66.10;;;;;;5259743;28;20702;-68
2022/05/08 08:50:37;;;;;;;3.43;1.40;;;17.30;66.10;;;;;;5278724;28;20184;-65
2022/05/08 08:53:31;;;;;;;3.20;1.60;;;17.30;66.10;;;;;;5276113;28;20260;-66
2022/05/08 08:56:23;;;;;;;4.03;1.60;;;17.30;66.60;;;;;;5284009;28;20198;-66
2022/05/08 08:59:15;;;;;;;2.57;1.33;;;17.30;66.10;;;;;;5282022;28;20195;-66
2022/05/08 09:02:16;;;;;;;3.53;1.47;;;17.30;66.20;;;;;;5286125;28;20191;-69
2022/05/08 09:05:10;;;;;;;6.47;1.80;;;17.30;65.00;;;;;;5286998;28;20210;-71
2022/05/08 09:08:04;;;;;;;7.47;2.00;;;17.30;61.90;;;;;;5287772;28;20195;-69
2022/05/08 09:10:58;;;;;;;34.03;8.13;;;17.30;62.00;;;;;;5267922;28;20248;-69
2022/05/08 09:13:51;;;;;;;57.50;8.60;;;17.30;60.90;;;;;;5272480;28;20782;-69
2022/05/08 09:16:53;;;;;;;27.13;6.83;;;17.40;61.00;;;;;;5267103;28;20188;-68
2022/05/08 09:19:45;;;;;;;21.13;5.23;;;17.40;59.20;;;;;;5267599;28;20187;-68
2022/05/08 09:22:37;;;;;;;22.80;5.60;;;17.40;60.50;;;;;;5273338;28;20188;-68
2022/05/08 09:25:50;;;;;;;29.08;5.55;;;17.40;61.00;;;;;;5273390;28;20425;-67
2022/05/08 09:28:44;;;;;;;22.67;4.53;;;17.50;60.70;;;;;;5275921;28;20215;-67
2022/05/08 09:31:40;;;;;;;16.93;3.80;;;17.50;61.40;;;;;;5276302;28;20195;-65
2022/05/08 09:34:56;;;;;;;18.03;4.20;;;17.50;61.60;;;;;;5270357;28;20691;-66
2022/05/08 09:37:53;;;;;;;12.33;3.13;;;17.50;61.60;;;;;;5269458;28;20332;-66
2022/05/08 09:40:46;;;;;;;12.53;3.57;;;17.40;61.10;;;;;;5267958;28;20203;-66
2022/05/08 09:43:41;;;;;;;14.43;3.70;;;17.40;61.50;;;;;;5268135;28;20188;-66
2022/05/08 09:46:37;;;;;;;12.87;3.07;;;17.40;60.80;;;;;;5267995;28;20245;-67
2022/05/08 09:49:30;;;;;;;9.87;2.60;;;17.40;61.10;;;;;;5265318;28;20202;-67
2022/05/08 09:52:22;;;;;;;7.80;2.47;;;17.40;61.40;;;;;;5265985;28;20348;-67
2022/05/08 09:55:15;;;;;;;6.30;2.40;;;17.40;61.60;;;;;;5271007;28;20215;-66
2022/05/08 09:58:07;;;;;;;9.67;1.73;;;17.40;61.50;;;;;;5265372;28;20192;-67
2022/05/08 10:01:01;;;;;;;6.43;2.00;;;17.40;61.60;;;;;;5266220;28;20245;-67
2022/05/08 10:03:55;;;;;;;7.33;2.17;;;17.40;61.90;;;;;;5266181;28;20196;-67
2022/05/08 10:06:47;;;;;;;6.43;1.73;;;17.30;61.60;;;;;;5265005;28;20195;-67
2022/05/08 10:15:57;;;;;;;7.50;2.00;;;17.30;61.10;;;;;;5267742;28;20208;-67
2022/05/08 10:18:50;;;;;;;5.67;1.83;;;17.40;61.60;;;;;;5273486;28;20316;-67
2022/05/08 10:22:05;;;;;;;6.20;1.83;;;17.30;61.80;;;;;;5274656;28;20195;-67
2022/05/08 10:25:15;;;;;;;6.87;2.17;;;17.30;61.70;;;;;;5274321;28;20239;-67
2022/05/08 10:28:08;;;;;;;6.57;1.97;;;17.30;61.60;;;;;;5275266;28;20188;-67
2022/05/08 10:31:45;;;;;;;3.40;1.43;;;17.30;61.40;;;;;;5264872;28;20252;-68
2022/05/08 10:34:40;;;;;;;3.60;1.23;;;17.30;61.60;;;;;;5276364;28;20283;-67
2022/05/08 10:37:32;;;;;;;4.17;1.50;;;17.40;61.60;;;;;;5281963;28;20195;-67
2022/05/08 10:40:38;;;;;;;3.40;1.40;;;17.30;61.60;;;;;;5277735;28;20577;-69
2022/05/08 10:43:30;;;;;;;6.17;1.90;;;17.30;61.60;;;;;;5283958;28;20214;-67
2022/05/08 10:46:24;;;;;;;4.60;1.80;;;17.40;61.60;;;;;;5283439;28;20187;-66
2022/05/08 10:49:16;;;;;;;3.10;1.50;;;17.30;61.60;;;;;;5277164;28;20296;-66
2022/05/08 10:52:09;;;;;;;3.63;1.20;;;17.30;61.50;;;;;;5284101;28;20269;-66
2022/05/08 10:55:04;;;;;;;4.53;1.53;;;17.30;61.60;;;;;;5260652;28;20231;-67
2022/05/08 10:57:57;;;;;;;5.30;1.70;;;17.30;61.60;;;;;;5265723;28;20236;-67
2022/05/08 11:00:49;;;;;;;5.77;1.63;;;17.30;61.70;;;;;;5264796;28;20203;-67
2022/05/08 11:03:41;;;;;;;4.90;1.53;;;17.30;61.60;;;;;;5268716;28;20274;-67
2022/05/08 11:06:33;;;;;;;5.17;1.63;;;17.30;61.60;;;;;;5268445;28;20725;-67
2022/05/08 11:09:26;;;;;;;5.53;1.90;;;17.30;61.60;;;;;;5265097;28;20690;-67
2022/05/08 11:12:19;;;;;;;3.00;1.30;;;17.30;61.50;;;;;;5265112;28;20272;-68
2022/05/08 11:15:12;;;;;;;3.53;1.30;;;17.30;61.40;;;;;;5264136;28;20215;-66
2022/05/08 11:18:07;;;;;;;2.90;1.13;;;17.30;61.40;;;;;;5266332;28;20200;-68
2022/05/08 11:21:02;;;;;;;3.90;1.40;;;17.30;61.20;;;;;;5267679;28;20192;-67
2022/05/08 11:23:55;;;;;;;4.30;1.20;;;17.30;61.30;;;;;;5267644;28;20192;-67
2022/05/08 11:26:48;;;;;;;3.90;1.40;;;17.30;61.30;;;;;;5267846;28;20199;-67
2022/05/08 11:29:47;;;;;;;5.13;1.47;;;17.30;61.30;;;;;;5280834;28;20730;-67
2022/05/08 11:36:06;;;;;;;3.37;1.33;;;17.30;61.20;;;;;;5280421;28;20260;-68
2022/05/08 11:38:59;;;;;;;6.07;1.67;;;17.30;61.00;;;;;;5269754;28;20196;-68
2022/05/08 11:41:54;;;;;;;4.37;1.20;;;17.30;61.10;;;;;;5270700;28;20309;-68
2022/05/08 11:44:46;;;;;;;3.67;1.50;;;17.30;61.00;;;;;;5268749;28;20212;-67
2022/05/08 11:47:38;;;;;;;3.30;1.30;;;17.30;61.10;;;;;;5272523;28;20204;-66
2022/05/08 11:50:31;;;;;;;3.13;1.33;;;17.30;61.10;;;;;;5284991;28;20270;-67
2022/05/08 11:53:23;;;;;;;3.53;1.33;;;17.30;61.30;;;;;;5271411;28;20219;-68
2022/05/08 11:56:27;;;;;;;4.33;1.40;;;17.30;61.60;;;;;;5268248;28;20270;-68
2022/05/08 11:59:23;;;;;;;3.93;1.80;;;17.30;61.40;;;;;;5268332;28;20206;-68
2022/05/08 12:02:16;;;;;;;5.27;1.60;;;17.30;61.30;;;;;;5282820;28;20321;-67
2022/05/08 12:05:17;;;;;;;4.23;1.50;;;17.30;61.20;;;;;;5285875;28;20232;-68
2022/05/08 12:08:22;;;;;;;2.83;1.07;;;17.30;61.20;;;;;;5288395;28;20323;-68
2022/05/08 12:11:30;;;;;;;4.93;1.53;;;17.30;61.30;;;;;;5285142;28;20216;-68
2022/05/08 12:14:33;;;;;;;2.70;1.50;;;17.30;60.90;;;;;;5288631;28;20215;-68
2022/05/08 12:17:25;;;;;;;3.67;1.30;;;17.30;61.20;;;;;;5288479;28;20199;-68
2022/05/08 12:20:20;;;;;;;3.27;1.50;;;17.30;61.20;;;;;;5266631;28;20184;-69
2022/05/08 12:23:12;;;;;;;2.73;1.70;;;17.30;61.40;;;;;;5266333;28;20184;-69
2022/05/08 12:26:04;;;;;;;3.53;1.40;;;17.30;60.90;;;;;;5266392;28;20215;-68
2022/05/08 12:28:57;;;;;;;2.67;1.20;;;17.30;59.50;;;;;;5268088;28;20656;-68
2022/05/08 12:31:52;;;;;;;4.30;1.50;;;17.30;59.10;;;;;;5268479;28;20447;-68
2022/05/08 12:34:45;;;;;;;3.07;1.47;;;17.30;58.30;;;;;;5266996;28;20220;-68
2022/05/08 12:37:38;;;;;;;4.50;1.43;;;17.30;58.80;;;;;;5266767;28;20200;-68
2022/05/08 12:40:30;;;;;;;4.30;1.43;;;17.30;59.30;;;;;;5266579;28;20203;-68
2022/05/08 12:43:22;;;;;;;5.53;1.70;;;17.30;59.60;;;;;;5286225;28;20194;-68
2022/05/08 12:46:15;;;;;;;5.53;1.30;;;17.30;59.80;;;;;;5288604;28;20240;-68
2022/05/08 12:49:10;;;;;;;3.20;1.60;;;17.30;59.70;;;;;;5288143;28;20293;-68
2022/05/08 12:52:03;;;;;;;3.97;1.33;;;17.30;60.10;;;;;;5287626;28;20203;-67
2022/05/08 12:54:55;;;;;;;2.63;1.10;;;17.30;60.40;;;;;;5286133;28;20760;-68
2022/05/08 13:00:57;;;;;;;2.00;1.10;;;17.30;60.50;;;;;;5284511;28;20179;-68
2022/05/08 13:03:49;;;;;;;2.20;1.20;;;17.30;60.80;;;;;;5286948;28;20191;-68
2022/05/08 13:06:43;;;;;;;2.80;1.57;;;17.30;60.90;;;;;;5286524;28;20278;-68
2022/05/08 13:09:36;;;;;;;3.80;1.57;;;17.30;60.90;;;;;;5266405;28;20590;-68
2022/05/08 13:12:28;;;;;;;3.87;1.67;;;17.30;60.90;;;;;;5266018;28;20279;-68
2022/05/08 13:15:21;;;;;;;5.00;1.50;;;17.30;60.90;;;;;;5267776;28;20216;-68
2022/05/08 13:18:13;;;;;;;2.67;1.10;;;17.30;61.20;;;;;;5271817;28;20321;-68
2022/05/08 13:21:06;;;;;;;2.33;1.30;;;17.30;61.20;;;;;;5267876;28;20276;-68
2022/05/08 13:24:00;;;;;;;3.93;1.20;;;17.30;61.30;;;;;;5265913;28;20547;-68
2022/05/08 13:26:55;;;;;;;4.77;1.73;;;17.30;61.30;;;;;;5267551;28;20537;-68
2022/05/08 13:29:48;;;;;;;3.13;1.27;;;17.30;61.30;;;;;;5281121;28;20188;-68
2022/05/08 13:32:40;;;;;;;3.47;1.00;;;17.30;61.50;;;;;;5279846;22;20724;-68
2022/05/08 13:35:32;;;;;;;3.67;1.30;;;17.30;61.50;;;;;;5305875;27;20279;-70
2022/05/08 13:38:26;;;;;;;3.97;1.27;;;17.30;61.60;;;;;;5301717;22;20368;-67
2022/05/08 13:41:20;;;;;;;2.87;1.40;;;17.30;61.50;;;;;;5303374;27;20198;-68
2022/05/08 13:44:12;;;;;;;3.57;1.20;;;17.30;61.60;;;;;;5289844;27;20293;-68
2022/05/08 13:47:06;;;;;;;4.03;1.23;;;17.30;61.70;;;;;;5265633;28;20675;-68
2022/05/08 13:49:59;;;;;;;2.87;1.30;;;17.30;61.70;;;;;;5266575;28;20192;-68
2022/05/08 13:52:51;;;;;;;4.07;1.43;;;17.30;61.70;;;;;;5265201;28;20701;-67
2022/05/08 13:55:46;;;;;;;2.83;1.07;;;17.30;61.80;;;;;;5268130;28;20226;-69
2022/05/08 13:58:39;;;;;;;1.80;1.00;;;17.30;61.80;;;;;;5264467;28;20187;-68
2022/05/08 14:01:32;;;;;;;3.27;1.37;;;17.30;61.80;;;;;;5265948;28;20199;-68
2022/05/08 14:04:24;;;;;;;3.23;1.07;;;17.30;61.90;;;;;;5265941;28;20212;-69
2022/05/08 14:07:16;;;;;;;3.17;1.30;;;17.30;62.00;;;;;;5275391;28;20230;-65
2022/05/08 14:10:09;;;;;;;3.13;1.30;;;17.30;62.00;;;;;;5286870;28;20199;-66
2022/05/08 14:13:02;;;;;;;1.77;1.13;;;17.30;62.10;;;;;;5265194;28;20282;-68
2022/05/08 14:15:55;;;;;;;4.43;1.37;;;17.30;62.10;;;;;;5265750;28;20210;-68
2022/05/08 14:18:48;;;;;;;3.07;1.60;;;17.30;62.00;;;;;;5264678;28;20196;-67
2022/05/08 14:21:40;;;;;;;3.07;1.40;;;17.30;62.10;;;;;;5263936;28;20196;-67
2022/05/08 14:24:33;;;;;;;3.20;1.40;;;17.30;62.00;;;;;;5264498;28;20242;-67
2022/05/08 14:27:25;;;;;;;2.03;1.10;;;17.30;62.20;;;;;;5265559;28;20203;-65
2022/05/08 14:30:18;;;;;;;2.47;1.43;;;17.30;62.30;;;;;;5264185;28;20196;-68
2022/05/08 14:36:21;;;;;;;2.07;1.17;;;17.30;62.30;;;;;;5297165;22;20351;-67
2022/05/08 14:39:13;;;;;;;1.47;0.90;;;17.30;62.40;;;;;;5266734;28;20206;-67
2022/05/08 14:42:06;;;;;;;2.43;1.33;;;17.30;62.40;;;;;;5281077;28;20195;-67
2022/05/08 14:44:58;;;;;;;2.47;1.40;;;17.30;62.40;;;;;;5281758;28;20324;-67
2022/05/08 14:47:50;;;;;;;4.17;1.30;;;17.30;62.40;;;;;;5263522;28;20205;-67
2022/05/08 14:50:43;;;;;;;3.63;1.50;;;17.30;62.50;;;;;;5263606;28;20681;-67
2022/05/08 14:53:37;;;;;;;2.40;1.03;;;17.30;62.50;;;;;;5248960;28;20188;-68
2022/05/08 14:56:30;;;;;;;2.90;1.30;;;17.30;62.50;;;;;;5250589;28;20215;-67
2022/05/08 14:59:22;;;;;;;1.33;1.07;;;17.30;62.40;;;;;;5249316;28;20556;-67
2022/05/08 15:02:14;;;;;;;2.13;0.90;;;17.30;62.50;;;;;;5248753;28;20199;-67
2022/05/08 15:05:08;;;;;;;2.80;1.30;;;17.30;62.50;;;;;;5249770;28;20184;-68
2022/05/08 15:08:01;;;;;;;2.60;1.13;;;17.30;62.50;;;;;;5248640;28;20196;-68
2022/05/08 15:10:54;;;;;;;2.30;1.30;;;17.30;62.60;;;;;;5250359;28;20698;-67
2022/05/08 15:13:46;;;;;;;3.57;1.40;;;17.30;62.60;;;;;;5248785;28;20197;-66
2022/05/08 15:16:40;;;;;;;2.50;1.03;;;17.30;62.70;;;;;;5253236;28;20212;-67
2022/05/08 15:19:33;;;;;;;2.33;1.27;;;17.30;62.70;;;;;;5269182;28;20191;-67
2022/05/08 15:22:25;;;;;;;1.97;0.87;;;17.30;62.70;;;;;;5268305;28;20196;-67
2022/05/08 15:25:18;;;;;;;2.33;1.20;;;17.30;62.80;;;;;;5268063;28;20223;-67
2022/05/08 15:28:10;;;;;;;2.50;1.10;;;17.30;62.80;;;;;;5269193;28;20196;-67
2022/05/08 15:31:02;;;;;;;2.23;1.40;;;17.30;62.80;;;;;;5269236;28;20200;-67
2022/05/08 15:33:54;;;;;;;2.27;1.03;;;17.30;62.80;;;;;;5269124;28;20210;-67